Osage, IA

8:51 AM CST on December 19, 2014 (GMT -0600)
KIAOSAGE1 | Change Station
CLOSE
Current Station
Personal Weather Station
Location: Osage, IA
Elevation: 1173 ft
Nearby Weather Stations

Elev 1173 ft 43.28 °N, 92.82 °W | Updated 14 seconds ago

Overcast
Overcast
23.4 °F
Feels Like 23 °F
N
0.0
Wind Variable Wind from NNW
Gusts 0.0 mph

Today
High -- | Low -- °F
--% Chance of Precip.
Yesterday
High -- | Low -- °F
Precip. -- in
7:39 AM 4:37 PM
Waning Crescent, 7% visible
Pressure 30.27 in
Visibility 7.0 miles
Clouds Few 2600 ft
Overcast 3200 ft
Windchill 23 °F
Dew Point 19 °F
Humidity 83%
Rainfall 0.00 in
Snow Depth Not available.
UV 0 out of 12
Pollen .10 out of 12
Air Quality Not available.
Flu Activity Not available.
METAR KCCY 191435Z AUTO 14005KT 7SM FEW026 OVC032 M04/M06 A3027 RMK AO2

More Conditions Fewer Conditions

Pressure 30.27 in
Visibility 7.0 miles
Clouds Few 2600 ft
Overcast 3200 ft
Windchill 23 °F
Dew Point 19 °F
Humidity 83%
Rainfall 0.00 in
Snow Depth Not available.
UV 0 out of 12
Pollen .10 out of 12
Air Quality Not available.
Flu Activity Not available.
METAR KCCY 191435Z AUTO 14005KT 7SM FEW026 OVC032 M04/M06 A3027 RMK AO2

More Conditions Fewer Conditions

10-Day Weather Forecast

Almanac

Astronomy

Dec. 19, 2014 Rise Set
Actual Time
Civil Twilight
Nautical Twilight
Astronomical Twilight
Moon
Length of Visible Light
Length of Day
Tomorrow will be .
, % of the Moon is Illuminated

Today's Extremes

State Highs State Lows

Community

WunderPhotos

Upload Photos

1,778,988 photos uploaded!

WunderBlogs® & News

Nearby

Air Quality

  Air Quality AQ Index Pollutant
Not available.

Snow Depth

Station Depth Elevation

Earthquake Activity

City Distance Mag. Time & Date
Minimum magnitude displayed is 2.5.

Coastal Water Temperatures

Place Temperature

Nearby Weather Stations